Time;durP1;ratioP1;P1;durP2;ratioP2;P2;SDS_P1;SDS_P2;PMS_P1;PMS_P2;Temp;Humidity;BMP_temperature;BMP_pressure;BME280_temperature;BME280_humidity;BME280_pressure;Samples;Min_cycle;Max_cycle;Signal;HPM_P1;HPM_P2
2022/12/05 00:00:54;;;;;;;39.67;14.43;;;4.60;99.90;;;;;;5112474;28;20066;-79
2022/12/05 00:03:20;;;;;;;32.67;12.50;;;4.60;99.90;;;;;;5091667;28;20028;-79
2022/12/05 00:05:46;;;;;;;39.10;12.20;;;4.60;99.90;;;;;;5093407;28;20028;-78
2022/12/05 00:08:12;;;;;;;33.63;12.23;;;4.60;99.90;;;;;;5091678;28;20499;-77
2022/12/05 00:10:38;;;;;;;33.10;12.20;;;4.60;99.90;;;;;;5093188;28;20028;-77
2022/12/05 00:13:04;;;;;;;31.20;11.50;;;4.60;99.90;;;;;;5093520;28;20061;-78
2022/12/05 00:15:30;;;;;;;39.70;12.67;;;4.60;99.90;;;;;;5091549;28;20052;-78
2022/12/05 00:17:56;;;;;;;34.43;11.80;;;4.50;99.90;;;;;;5093430;28;20028;-78
2022/12/05 00:20:22;;;;;;;36.17;13.13;;;4.50;99.90;;;;;;5091669;28;20107;-75
2022/12/05 00:22:48;;;;;;;38.63;12.97;;;4.50;99.90;;;;;;5091370;28;20126;-77
2022/12/05 00:25:13;;;;;;;39.23;14.40;;;4.50;99.90;;;;;;5090991;28;20067;-78
2022/12/05 00:27:39;;;;;;;38.83;13.10;;;4.50;99.90;;;;;;5092814;28;20469;-77
2022/12/05 00:30:05;;;;;;;45.47;14.70;;;4.50;99.90;;;;;;5092219;28;20070;-77
2022/12/05 00:32:31;;;;;;;44.70;14.00;;;4.50;99.90;;;;;;5101381;28;20020;-78
2022/12/05 00:34:57;;;;;;;40.33;14.00;;;4.50;99.90;;;;;;5092759;28;20067;-79
2022/12/05 00:37:23;;;;;;;41.47;13.77;;;4.50;99.90;;;;;;5091977;28;20107;-78
2022/12/05 00:39:49;;;;;;;35.13;13.47;;;4.50;99.90;;;;;;5104704;28;20027;-78
2022/12/05 00:42:15;;;;;;;43.07;14.03;;;4.50;99.90;;;;;;5110930;28;20043;-76
2022/12/05 00:44:41;;;;;;;47.43;15.03;;;4.50;99.90;;;;;;5113288;28;20381;-76
2022/12/05 00:47:06;;;;;;;37.90;14.00;;;4.50;99.90;;;;;;5091791;28;20028;-77
2022/12/05 00:49:32;;;;;;;49.50;16.30;;;4.40;99.90;;;;;;5110822;28;20098;-77
2022/12/05 00:51:58;;;;;;;43.60;15.97;;;4.50;99.90;;;;;;5112188;28;20028;-77
2022/12/05 00:54:23;;;;;;;47.67;15.23;;;4.40;99.90;;;;;;5098655;28;20032;-76
2022/12/05 00:56:51;;;;;;;47.00;15.60;;;4.40;99.90;;;;;;5092889;28;20115;-76
2022/12/05 00:59:18;;;;;;;45.43;14.80;;;4.40;99.90;;;;;;5092448;28;20024;-76
2022/12/05 01:01:45;;;;;;;48.50;15.40;;;4.40;99.90;;;;;;5091639;28;20093;-77
2022/12/05 01:04:18;;;;;;;54.03;18.33;;;4.40;99.90;;;;;;5091475;28;20082;-76
2022/12/05 01:06:43;;;;;;;46.80;14.83;;;4.40;99.90;;;;;;5093182;28;20377;-77
2022/12/05 01:09:13;;;;;;;43.33;14.97;;;4.40;99.90;;;;;;5092174;28;20122;-77
2022/12/05 01:11:39;;;;;;;46.60;14.80;;;4.40;99.90;;;;;;5095008;28;20020;-77
2022/12/05 01:14:05;;;;;;;41.47;14.33;;;4.40;99.90;;;;;;5112138;28;20062;-77
2022/12/05 01:16:36;;;;;;;50.17;14.97;;;4.40;99.90;;;;;;5111801;28;20104;-78
2022/12/05 01:19:04;;;;;;;46.03;14.83;;;4.40;99.90;;;;;;5113656;28;20468;-78
2022/12/05 01:21:30;;;;;;;45.77;14.80;;;4.40;99.90;;;;;;5113076;28;20020;-78
2022/12/05 01:23:56;;;;;;;45.77;15.03;;;4.40;99.90;;;;;;5113519;28;20038;-78
2022/12/05 01:26:22;;;;;;;46.17;13.87;;;4.40;99.90;;;;;;5112934;28;20028;-77
2022/12/05 01:28:49;;;;;;;39.30;13.27;;;4.40;99.90;;;;;;5112284;28;20023;-77
2022/12/05 01:31:24;;;;;;;40.20;12.97;;;4.40;99.90;;;;;;5112791;28;20028;-77
2022/12/05 01:33:52;;;;;;;40.00;13.77;;;4.40;99.90;;;;;;5112204;28;20031;-77
2022/12/05 01:36:18;;;;;;;45.00;14.13;;;4.40;99.90;;;;;;5112624;28;20032;-76
2022/12/05 01:38:44;;;;;;;44.80;15.10;;;4.40;99.90;;;;;;5113148;28;20130;-77
2022/12/05 01:41:16;;;;;;;45.30;14.80;;;4.40;99.90;;;;;;5115480;28;20034;-76
2022/12/05 01:43:59;;;;;;;38.28;13.77;;;4.40;99.90;;;;;;5116701;28;20019;-76
2022/12/05 01:46:27;;;;;;;47.67;14.80;;;4.40;99.90;;;;;;5115055;28;20047;-77
2022/12/05 01:49:08;;;;;;;38.00;14.13;;;4.40;99.90;;;;;;5115779;28;20388;-77
2022/12/05 01:51:36;;;;;;;43.77;14.10;;;4.40;99.90;;;;;;5115101;28;20032;-77
2022/12/05 01:54:03;;;;;;;40.00;13.27;;;4.40;99.90;;;;;;5115700;28;20023;-77
2022/12/05 01:56:31;;;;;;;45.83;13.93;;;4.40;99.90;;;;;;5114871;28;20028;-77
2022/12/05 01:58:58;;;;;;;42.40;13.80;;;4.40;99.90;;;;;;5115365;28;20057;-77
2022/12/05 02:01:23;;;;;;;43.33;13.47;;;4.40;99.90;;;;;;5115130;28;20028;-77
2022/12/05 02:03:53;;;;;;;41.00;13.07;;;4.40;99.90;;;;;;5115555;28;20476;-77
2022/12/05 02:06:20;;;;;;;42.80;13.67;;;4.40;99.90;;;;;;5116170;28;20077;-77
2022/12/05 02:08:46;;;;;;;41.27;12.73;;;4.40;99.90;;;;;;5115784;28;20034;-77
2022/12/05 02:11:12;;;;;;;38.67;12.50;;;4.40;99.90;;;;;;5115749;28;20118;-77
2022/12/05 02:14:00;;;;;;;44.87;13.23;;;4.40;99.90;;;;;;5114922;28;20735;-77
2022/12/05 02:16:40;;;;;;;38.47;12.57;;;4.40;99.90;;;;;;5114931;28;20460;-77
2022/12/05 02:19:44;;;;;;;43.07;13.60;;;4.40;99.90;;;;;;5115659;28;20118;-77
2022/12/05 02:22:46;;;;;;;48.60;14.70;;;4.40;99.90;;;;;;5115613;28;20023;-77
2022/12/05 02:25:37;;;;;;;44.07;14.27;;;4.40;99.90;;;;;;5115456;28;20110;-77
2022/12/05 02:28:51;;;;;;;48.33;14.50;;;4.40;99.90;;;;;;5116312;28;20019;-77
2022/12/05 02:31:33;;;;;;;43.67;13.70;;;4.40;99.90;;;;;;5114836;28;20468;-77
2022/12/05 02:34:23;;;;;;;36.65;12.13;;;4.40;99.90;;;;;;5115188;28;20027;-77
2022/12/05 02:37:04;;;;;;;39.50;13.27;;;4.40;99.90;;;;;;5114857;28;20023;-77
2022/12/05 02:40:16;;;;;;;43.43;13.40;;;4.40;99.90;;;;;;5115782;28;20050;-77
2022/12/05 02:42:50;;;;;;;45.88;13.30;;;4.30;99.90;;;;;;5107220;28;20481;-78
2022/12/05 02:45:18;;;;;;;42.23;13.80;;;4.40;99.90;;;;;;5115436;28;20097;-78
2022/12/05 02:47:52;;;;;;;39.20;12.67;;;4.40;99.90;;;;;;5116220;28;20059;-77
2022/12/05 02:50:25;;;;;;;35.20;11.57;;;4.40;99.90;;;;;;5114501;28;20028;-76
2022/12/05 02:52:55;;;;;;;44.63;13.50;;;4.40;99.90;;;;;;5114678;28;20028;-77
2022/12/05 02:55:22;;;;;;;42.60;13.03;;;4.30;99.90;;;;;;5115674;28;20365;-77
2022/12/05 02:57:53;;;;;;;42.70;13.47;;;4.30;99.90;;;;;;5115281;28;20044;-77
2022/12/05 03:00:18;;;;;;;35.33;12.60;;;4.30;99.90;;;;;;5114687;28;20031;-76
2022/12/05 03:02:44;;;;;;;40.40;12.60;;;4.40;99.90;;;;;;5115916;28;20115;-78
2022/12/05 03:05:37;;;;;;;39.27;12.50;;;4.30;99.90;;;;;;5114709;28;20376;-78
2022/12/05 03:08:07;;;;;;;37.67;12.20;;;4.40;99.90;;;;;;5115939;28;20027;-78
2022/12/05 03:10:35;;;;;;;38.60;13.37;;;4.40;99.90;;;;;;5115061;28;20047;-77
2022/12/05 03:13:07;;;;;;;45.70;14.23;;;4.30;99.90;;;;;;5115599;27;20028;-77
2022/12/05 03:15:39;;;;;;;47.03;13.63;;;4.40;99.90;;;;;;5113544;28;20055;-77
2022/12/05 03:18:22;;;;;;;44.10;12.70;;;4.40;99.90;;;;;;5114416;28;20032;-77
2022/12/05 03:21:16;;;;;;;41.60;13.03;;;4.30;99.90;;;;;;5114685;28;20028;-77
2022/12/05 03:23:49;;;;;;;43.77;13.20;;;4.40;99.90;;;;;;5114538;28;20023;-77
2022/12/05 03:26:30;;;;;;;38.03;13.63;;;4.40;99.90;;;;;;5115555;28;20023;-77
2022/12/05 03:29:19;;;;;;;39.20;12.20;;;4.40;99.90;;;;;;5115572;28;20095;-77
2022/12/05 03:32:05;;;;;;;38.53;12.27;;;4.40;99.90;;;;;;5114165;28;20028;-77
2022/12/05 03:34:49;;;;;;;40.33;13.53;;;4.40;99.90;;;;;;5115018;28;20051;-77
2022/12/05 03:37:38;;;;;;;34.93;12.00;;;4.40;99.90;;;;;;5114541;28;20072;-77
2022/12/05 03:40:31;;;;;;;34.43;11.27;;;4.40;99.90;;;;;;5115160;28;20074;-77
2022/12/05 03:43:19;;;;;;;35.40;11.93;;;4.40;99.90;;;;;;5113651;28;20024;-77
2022/12/05 03:45:53;;;;;;;33.43;11.50;;;4.40;99.90;;;;;;5114978;28;20460;-77
2022/12/05 03:48:29;;;;;;;36.00;11.93;;;4.50;99.90;;;;;;5114657;28;20032;-78
2022/12/05 03:50:57;;;;;;;33.43;12.20;;;4.50;99.90;;;;;;5114013;28;20023;-77
2022/12/05 03:53:28;;;;;;;37.97;13.03;;;4.50;99.90;;;;;;5113708;28;20028;-77
2022/12/05 03:56:04;;;;;;;34.40;11.20;;;4.50;99.90;;;;;;5114088;28;20030;-77
2022/12/05 03:58:37;;;;;;;33.67;11.67;;;4.50;99.90;;;;;;5114113;28;20287;-77
2022/12/05 04:01:05;;;;;;;32.10;11.77;;;4.50;99.90;;;;;;5114096;28;20118;-77
2022/12/05 04:03:38;;;;;;;34.40;11.00;;;4.50;99.90;;;;;;5112788;28;20051;-77
2022/12/05 04:06:12;;;;;;;30.43;12.33;;;4.50;99.90;;;;;;5113733;28;20023;-77
2022/12/05 04:08:52;;;;;;;34.80;11.57;;;4.60;99.90;;;;;;5114177;28;20036;-77
2022/12/05 04:11:22;;;;;;;29.80;12.07;;;4.60;99.90;;;;;;5114511;28;20533;-77
2022/12/05 04:14:16;;;;;;;25.03;11.10;;;4.60;99.90;;;;;;5114273;28;20057;-76
2022/12/05 04:17:04;;;;;;;32.10;11.30;;;4.70;99.90;;;;;;5113343;28;20075;-76
2022/12/05 04:22:33;;;;;;;29.08;10.75;;;4.70;99.90;;;;;;5113520;28;20088;-76
2022/12/05 04:27:46;;;;;;;28.97;10.63;;;4.70;99.90;;;;;;5113484;28;20899;-76
2022/12/05 04:30:24;;;;;;;29.50;11.17;;;4.70;99.90;;;;;;5112814;28;20028;-77
2022/12/05 04:33:05;;;;;;;27.43;10.23;;;4.70;99.90;;;;;;5112493;28;20024;-77
2022/12/05 04:35:41;;;;;;;28.17;10.83;;;4.70;99.90;;;;;;5112333;28;20024;-76
2022/12/05 04:38:36;;;;;;;27.13;10.43;;;4.70;99.90;;;;;;5114015;28;20024;-76
2022/12/05 04:41:06;;;;;;;29.37;10.80;;;4.80;99.90;;;;;;5098996;28;20108;-76
2022/12/05 04:43:38;;;;;;;31.30;10.43;;;4.70;99.90;;;;;;5111601;28;20059;-76
2022/12/05 04:46:06;;;;;;;29.38;10.30;;;4.70;99.90;;;;;;5114099;28;20024;-78
2022/12/05 04:48:36;;;;;;;23.03;9.60;;;4.80;99.90;;;;;;5113773;28;20039;-78
2022/12/05 04:51:03;;;;;;;29.43;10.47;;;4.80;99.90;;;;;;5114238;28;20031;-78
2022/12/05 04:53:30;;;;;;;25.63;9.87;;;4.80;99.90;;;;;;5113592;28;20483;-78
2022/12/05 04:55:59;;;;;;;24.93;9.67;;;4.80;99.90;;;;;;5113314;28;20046;-78
2022/12/05 04:58:26;;;;;;;24.90;10.30;;;4.70;99.90;;;;;;5113962;28;20042;-77
2022/12/05 05:01:09;;;;;;;25.00;10.47;;;4.70;99.90;;;;;;5112904;28;20066;-78
2022/12/05 05:03:44;;;;;;;27.73;10.50;;;4.70;99.90;;;;;;5113562;28;20079;-78
2022/12/05 05:06:11;;;;;;;27.17;10.13;;;4.70;99.90;;;;;;5113386;28;20047;-78
2022/12/05 05:08:47;;;;;;;28.13;9.90;;;4.70;99.90;;;;;;5112755;28;20043;-78
2022/12/05 05:11:24;;;;;;;21.93;10.23;;;4.70;99.90;;;;;;5113342;28;20023;-78
2022/12/05 05:13:51;;;;;;;26.53;10.17;;;4.70;99.90;;;;;;5113379;28;20062;-78
2022/12/05 05:16:18;;;;;;;24.63;10.13;;;4.80;99.90;;;;;;5118150;28;20063;-78
2022/12/05 05:18:45;;;;;;;23.57;10.13;;;4.80;99.90;;;;;;5117459;28;20035;-79
2022/12/05 05:21:22;;;;;;;22.00;9.43;;;4.80;99.90;;;;;;5117146;28;20476;-78
2022/12/05 05:23:48;;;;;;;24.20;10.10;;;4.80;99.90;;;;;;5116295;28;20204;-78
2022/12/05 05:26:14;;;;;;;22.73;8.90;;;4.80;99.90;;;;;;5117724;28;20476;-78
2022/12/05 05:28:39;;;;;;;22.83;9.57;;;4.80;99.90;;;;;;5116321;28;20039;-78
2022/12/05 05:31:06;;;;;;;25.40;9.43;;;4.80;99.90;;;;;;5117818;28;20020;-79
2022/12/05 05:33:32;;;;;;;25.20;10.07;;;4.80;99.90;;;;;;5116186;28;20061;-78
2022/12/05 05:36:03;;;;;;;23.07;10.10;;;4.90;99.90;;;;;;5117793;28;20368;-79
2022/12/05 05:38:29;;;;;;;21.53;9.20;;;4.90;99.90;;;;;;5115818;28;20108;-77
2022/12/05 05:40:54;;;;;;;22.87;9.90;;;4.90;99.90;;;;;;5115983;28;20059;-77
2022/12/05 05:43:20;;;;;;;24.10;9.33;;;4.90;99.90;;;;;;5117327;28;20023;-78
2022/12/05 05:45:46;;;;;;;28.23;10.43;;;4.90;99.90;;;;;;5115666;28;20028;-77
2022/12/05 05:48:11;;;;;;;21.13;9.20;;;4.90;99.90;;;;;;5117528;28;20023;-78
2022/12/05 05:50:37;;;;;;;24.43;9.57;;;4.90;99.90;;;;;;5115911;28;20034;-78
2022/12/05 05:53:02;;;;;;;24.23;9.67;;;4.90;99.90;;;;;;5117678;28;20024;-78
2022/12/05 05:55:28;;;;;;;22.10;8.80;;;4.80;99.90;;;;;;5117221;28;20054;-77
2022/12/05 05:57:53;;;;;;;26.27;10.07;;;4.80;99.90;;;;;;5115725;28;20395;-78
2022/12/05 06:00:19;;;;;;;24.13;10.20;;;4.80;99.90;;;;;;5115719;28;20046;-78
2022/12/05 06:02:45;;;;;;;22.67;10.20;;;4.80;99.90;;;;;;5115142;28;20057;-78
2022/12/05 06:05:11;;;;;;;22.13;9.20;;;4.80;99.90;;;;;;5116823;28;20084;-77
2022/12/05 06:07:36;;;;;;;23.87;9.80;;;4.80;99.90;;;;;;5116109;27;20028;-77
2022/12/05 06:10:02;;;;;;;19.40;8.73;;;4.70;99.90;;;;;;5115621;28;20380;-77
2022/12/05 06:12:28;;;;;;;20.37;9.23;;;4.70;99.90;;;;;;5115312;28;20037;-77
2022/12/05 06:14:54;;;;;;;19.13;9.00;;;4.70;99.90;;;;;;5115904;28;20231;-77
2022/12/05 06:17:19;;;;;;;21.73;9.33;;;4.80;99.90;;;;;;5116808;28;20024;-77
2022/12/05 06:19:48;;;;;;;23.47;9.17;;;4.80;99.90;;;;;;5115121;28;20094;-77
2022/12/05 06:22:13;;;;;;;22.57;9.53;;;4.80;99.90;;;;;;5115345;28;20423;-77
2022/12/05 06:24:39;;;;;;;20.97;9.47;;;4.70;99.90;;;;;;5115511;28;20023;-76
2022/12/05 06:27:05;;;;;;;23.47;10.03;;;4.80;99.90;;;;;;5115945;28;20035;-77
2022/12/05 06:29:30;;;;;;;20.03;8.80;;;4.80;99.90;;;;;;5114520;28;20028;-76
2022/12/05 06:31:56;;;;;;;20.53;9.00;;;4.80;99.90;;;;;;5114474;28;20373;-77
2022/12/05 06:34:21;;;;;;;20.13;8.90;;;4.80;99.90;;;;;;5114750;28;20024;-77
2022/12/05 06:36:47;;;;;;;24.23;9.70;;;4.90;99.90;;;;;;5115057;28;20024;-76
2022/12/05 06:39:13;;;;;;;25.10;9.63;;;4.90;99.90;;;;;;5114484;28;20119;-76
2022/12/05 06:41:38;;;;;;;22.80;9.23;;;4.90;99.90;;;;;;5114012;28;20032;-77
2022/12/05 06:44:04;;;;;;;19.50;9.47;;;4.80;99.90;;;;;;5114842;28;20035;-77
2022/12/05 06:46:30;;;;;;;26.00;10.00;;;4.80;99.90;;;;;;5114649;28;20031;-76
2022/12/05 06:48:56;;;;;;;22.00;9.27;;;4.80;99.90;;;;;;5113905;28;20110;-76
2022/12/05 06:51:23;;;;;;;20.70;9.93;;;4.80;99.90;;;;;;5114449;28;20127;-77
2022/12/05 06:53:49;;;;;;;18.77;8.97;;;4.80;99.90;;;;;;5113687;28;20422;-77
2022/12/05 06:56:17;;;;;;;17.37;7.87;;;4.90;99.90;;;;;;5114076;28;20024;-77
2022/12/05 06:58:44;;;;;;;24.60;9.80;;;4.80;99.90;;;;;;5113653;28;20473;-77
2022/12/05 07:03:59;;;;;;;22.80;9.23;;;4.80;99.90;;;;;;5115468;28;20035;-77
2022/12/05 07:06:26;;;;;;;22.87;9.53;;;4.80;99.90;;;;;;5114278;28;20028;-77
2022/12/05 07:08:51;;;;;;;21.90;9.17;;;4.80;99.90;;;;;;5114995;28;20488;-78
2022/12/05 07:11:17;;;;;;;21.43;9.47;;;4.80;99.90;;;;;;5114422;28;20469;-77
2022/12/05 07:13:43;;;;;;;22.77;10.37;;;4.80;99.90;;;;;;5114786;28;20023;-77
2022/12/05 07:16:08;;;;;;;23.57;9.73;;;4.80;99.90;;;;;;5114087;28;20044;-77
2022/12/05 07:18:35;;;;;;;19.30;8.93;;;4.80;99.90;;;;;;5109574;28;20074;-77
2022/12/05 07:21:12;;;;;;;24.60;10.67;;;4.80;99.90;;;;;;5098665;28;20553;-77
2022/12/05 07:23:38;;;;;;;23.63;9.30;;;4.80;99.90;;;;;;5110789;28;20024;-77
2022/12/05 07:26:06;;;;;;;24.53;9.50;;;4.80;99.90;;;;;;5113602;28;20020;-77
2022/12/05 07:28:31;;;;;;;24.77;9.40;;;4.80;99.90;;;;;;5114026;28;20028;-77
2022/12/05 07:31:05;;;;;;;20.57;9.37;;;4.80;99.90;;;;;;5101712;28;20035;-77
2022/12/05 07:33:31;;;;;;;22.43;9.60;;;4.90;99.90;;;;;;5110131;28;20073;-77
2022/12/05 07:36:05;;;;;;;20.40;8.83;;;4.90;99.90;;;;;;5113120;28;20024;-77
2022/12/05 07:38:31;;;;;;;21.33;10.10;;;4.90;99.90;;;;;;5113504;28;20062;-77
2022/12/05 07:40:56;;;;;;;22.30;9.33;;;4.90;99.90;;;;;;5103160;28;20051;-77
2022/12/05 07:43:23;;;;;;;25.03;9.60;;;4.90;99.90;;;;;;5113036;28;20497;-77
2022/12/05 07:45:48;;;;;;;20.00;9.40;;;4.90;99.90;;;;;;5095682;28;20024;-78
2022/12/05 07:48:14;;;;;;;24.20;10.30;;;5.00;99.90;;;;;;5108409;28;20055;-77
2022/12/05 07:50:39;;;;;;;22.90;10.63;;;4.90;99.90;;;;;;5100616;28;20076;-78
2022/12/05 07:53:05;;;;;;;22.10;9.73;;;4.90;99.90;;;;;;5113379;28;20036;-78
2022/12/05 07:55:30;;;;;;;25.10;10.07;;;4.90;99.90;;;;;;5113631;28;20027;-79
2022/12/05 07:57:56;;;;;;;24.40;10.13;;;4.90;99.90;;;;;;5113060;28;20595;-79
2022/12/05 08:00:22;;;;;;;23.77;9.77;;;4.90;99.90;;;;;;5113519;28;20066;-78
2022/12/05 08:02:47;;;;;;;26.33;9.87;;;4.90;99.90;;;;;;5104407;28;20028;-78
2022/12/05 08:05:14;;;;;;;21.57;9.30;;;4.90;99.90;;;;;;5105853;28;20023;-77
2022/12/05 08:07:40;;;;;;;22.90;9.30;;;5.00;99.90;;;;;;5112079;28;20027;-76
2022/12/05 08:10:06;;;;;;;23.13;9.67;;;5.00;99.90;;;;;;5108759;28;20039;-78
2022/12/05 08:12:32;;;;;;;21.57;9.50;;;5.00;99.90;;;;;;5093069;28;20381;-78
2022/12/05 08:14:58;;;;;;;21.73;8.77;;;5.00;99.90;;;;;;5092426;28;20081;-78
2022/12/05 08:17:23;;;;;;;21.03;8.53;;;5.00;99.90;;;;;;5108105;28;20031;-78
2022/12/05 08:19:49;;;;;;;22.10;9.83;;;5.00;99.90;;;;;;5107077;28;20441;-78
2022/12/05 08:22:14;;;;;;;20.33;8.90;;;5.00;99.90;;;;;;5108240;28;20036;-78
2022/12/05 08:24:40;;;;;;;18.37;8.77;;;5.00;99.90;;;;;;5100396;28;20061;-78
2022/12/05 08:27:06;;;;;;;20.97;8.97;;;5.00;99.90;;;;;;5113297;28;20053;-78
2022/12/05 08:29:31;;;;;;;19.97;9.33;;;5.00;99.90;;;;;;5112905;28;20039;-77
2022/12/05 08:31:57;;;;;;;24.77;9.80;;;5.00;99.90;;;;;;5109783;28;20560;-78
2022/12/05 08:34:23;;;;;;;21.27;9.77;;;5.10;99.90;;;;;;5098514;28;20030;-77
2022/12/05 08:36:49;;;;;;;21.90;9.50;;;5.10;99.90;;;;;;5111907;28;20028;-77
2022/12/05 08:39:17;;;;;;;22.73;10.20;;;5.20;99.90;;;;;;5100388;28;20028;-78
2022/12/05 08:41:45;;;;;;;22.23;8.83;;;5.20;99.90;;;;;;5092309;28;20028;-77
2022/12/05 08:44:15;;;;;;;20.03;9.57;;;5.20;99.90;;;;;;5104790;28;20024;-78
2022/12/05 08:46:42;;;;;;;23.40;9.50;;;5.20;99.90;;;;;;5110463;28;20099;-77
2022/12/05 08:49:09;;;;;;;24.77;10.13;;;5.20;99.90;;;;;;5106833;28;20106;-78
2022/12/05 08:51:35;;;;;;;22.23;10.03;;;5.20;99.90;;;;;;5112425;28;20047;-78
2022/12/05 08:54:02;;;;;;;20.87;10.30;;;5.20;99.90;;;;;;5094218;28;20059;-78
2022/12/05 08:56:28;;;;;;;24.30;10.57;;;5.20;99.90;;;;;;5111722;28;20051;-78
2022/12/05 08:58:54;;;;;;;26.70;9.50;;;5.20;99.90;;;;;;5111812;28;20457;-78
2022/12/05 09:01:20;;;;;;;18.90;10.00;;;5.20;99.90;;;;;;5110467;28;20085;-78
2022/12/05 09:03:46;;;;;;;24.73;10.83;;;5.30;99.90;;;;;;5094663;28;20029;-78
2022/12/05 09:06:15;;;;;;;24.90;10.57;;;5.30;99.90;;;;;;5112045;28;20516;-78
2022/12/05 09:08:42;;;;;;;22.80;10.23;;;5.20;99.90;;;;;;5111493;28;20031;-77
2022/12/05 09:11:20;;;;;;;32.10;11.63;;;5.30;99.90;;;;;;5112025;28;20024;-78
2022/12/05 09:13:46;;;;;;;25.57;10.50;;;5.40;99.90;;;;;;5110453;28;20361;-77
2022/12/05 09:16:25;;;;;;;22.50;10.57;;;5.40;99.90;;;;;;5111774;28;20131;-78
2022/12/05 09:18:51;;;;;;;23.07;10.20;;;5.30;99.90;;;;;;5109036;28;20023;-78
2022/12/05 09:21:20;;;;;;;22.20;9.07;;;5.30;99.90;;;;;;5110898;28;20024;-77
2022/12/05 09:23:46;;;;;;;23.53;9.50;;;5.40;99.90;;;;;;5110766;28;20521;-77
2022/12/05 09:26:15;;;;;;;23.37;10.23;;;5.40;99.90;;;;;;5111291;28;20031;-78
2022/12/05 09:28:41;;;;;;;22.37;10.17;;;5.30;99.90;;;;;;5108648;28;20039;-77
2022/12/05 09:31:16;;;;;;;23.00;10.07;;;5.30;99.90;;;;;;5109570;28;20117;-77
2022/12/05 09:33:42;;;;;;;23.80;9.90;;;5.40;99.90;;;;;;5112701;28;20089;-78
2022/12/05 09:36:12;;;;;;;23.63;10.13;;;5.40;99.90;;;;;;5112082;28;20032;-78
2022/12/05 09:38:38;;;;;;;21.23;9.83;;;5.40;99.90;;;;;;5111707;28;20036;-78
2022/12/05 09:45:13;;;;;;;26.17;10.07;;;5.40;99.90;;;;;;5078410;28;20051;-78
2022/12/05 09:47:57;;;;;;;23.30;9.90;;;5.50;99.90;;;;;;5046895;28;20032;-78
2022/12/05 09:50:27;;;;;;;23.47;9.70;;;5.50;99.90;;;;;;5110732;28;20073;-77
2022/12/05 09:53:06;;;;;;;22.80;9.83;;;5.40;99.90;;;;;;5110680;28;20376;-78
2022/12/05 09:55:59;;;;;;;25.00;10.70;;;5.40;99.90;;;;;;5111757;28;20032;-78
2022/12/05 09:58:37;;;;;;;23.43;10.83;;;5.40;99.90;;;;;;5088093;28;20035;-79
2022/12/05 10:01:32;;;;;;;26.93;10.90;;;5.40;99.90;;;;;;5114425;28;20023;-77
2022/12/05 10:04:21;;;;;;;23.20;9.77;;;5.40;99.90;;;;;;5114976;28;20023;-79
2022/12/05 10:06:53;;;;;;;24.20;9.93;;;5.50;99.90;;;;;;5093656;28;20060;-78
2022/12/05 10:09:42;;;;;;;24.73;9.68;;;5.50;99.90;;;;;;5095053;28;20024;-79
2022/12/05 10:12:46;;;;;;;22.40;9.97;;;5.60;99.90;;;;;;5100304;28;20066;-78
2022/12/05 10:15:31;;;;;;;22.73;9.30;;;5.60;99.90;;;;;;5089051;28;20602;-79
2022/12/05 10:18:00;;;;;;;22.73;9.73;;;5.60;99.90;;;;;;5098231;28;20031;-76
2022/12/05 10:20:32;;;;;;;21.57;10.07;;;5.70;99.90;;;;;;5095925;28;20039;-78
2022/12/05 10:23:14;;;;;;;25.63;10.47;;;5.70;99.90;;;;;;5106279;28;20028;-78
2022/12/05 10:25:41;;;;;;;24.60;10.63;;;5.70;99.90;;;;;;5106917;28;20055;-79
2022/12/05 10:28:27;;;;;;;20.57;10.03;;;5.70;99.90;;;;;;5094598;28;20075;-75
2022/12/05 10:30:57;;;;;;;21.00;10.47;;;5.70;99.90;;;;;;5104846;28;20024;-79
2022/12/05 10:33:26;;;;;;;29.27;10.73;;;5.70;99.90;;;;;;5114809;28;20028;-78
2022/12/05 10:35:52;;;;;;;21.30;9.90;;;5.70;99.90;;;;;;5113755;28;20050;-78
2022/12/05 10:38:29;;;;;;;24.40;10.50;;;5.80;99.90;;;;;;5114176;28;20024;-77
2022/12/05 10:41:00;;;;;;;25.80;10.43;;;5.80;99.90;;;;;;5115153;28;20028;-78
2022/12/05 10:43:31;;;;;;;24.93;10.83;;;5.80;99.90;;;;;;5108840;28;20087;-78
2022/12/05 10:45:57;;;;;;;21.35;9.98;;;5.90;99.90;;;;;;5103563;28;20040;-77
2022/12/05 10:48:23;;;;;;;25.17;9.77;;;5.90;99.90;;;;;;5103956;28;20039;-80
2022/12/05 10:50:52;;;;;;;21.67;9.57;;;6.00;99.90;;;;;;5110507;28;20020;-78
2022/12/05 10:53:24;;;;;;;25.93;10.30;;;6.00;99.90;;;;;;5106299;28;20034;-82
2022/12/05 10:55:51;;;;;;;26.00;10.43;;;6.10;99.90;;;;;;5115232;28;20409;-79
2022/12/05 10:58:22;;;;;;;21.43;9.77;;;6.10;99.90;;;;;;5114036;28;20024;-78
2022/12/05 11:00:52;;;;;;;23.83;10.40;;;6.20;99.90;;;;;;5105570;28;20373;-80
2022/12/05 11:03:28;;;;;;;23.13;10.50;;;6.30;99.90;;;;;;5114314;28;20392;-78
2022/12/05 11:05:56;;;;;;;23.60;10.10;;;6.30;99.90;;;;;;5113684;28;20035;-79
2022/12/05 11:08:28;;;;;;;23.10;9.70;;;6.30;99.90;;;;;;5099934;28;20027;-78
2022/12/05 11:11:17;;;;;;;24.35;10.40;;;6.30;99.90;;;;;;5109840;28;20109;-80
2022/12/05 11:14:01;;;;;;;21.17;9.87;;;6.30;99.90;;;;;;5111602;28;20031;-82
2022/12/05 11:16:33;;;;;;;21.27;9.73;;;6.30;99.90;;;;;;5101155;28;20303;-78
2022/12/05 11:19:22;;;;;;;18.83;9.15;;;6.30;99.90;;;;;;5105405;28;20034;-80
2022/12/05 11:21:49;;;;;;;23.63;9.50;;;6.30;99.90;;;;;;5102452;28;20651;-79
2022/12/05 11:24:35;;;;;;;24.63;9.97;;;6.30;99.90;;;;;;5105993;28;20141;-79
2022/12/05 11:27:28;;;;;;;21.83;9.63;;;6.30;99.90;;;;;;5110182;28;20027;-77
2022/12/05 11:29:58;;;;;;;20.83;9.73;;;6.40;99.90;;;;;;5094622;28;20481;-88
2022/12/05 11:32:28;;;;;;;18.60;9.40;;;6.40;99.90;;;;;;5107108;28;20096;-84
2022/12/05 11:35:11;;;;;;;25.93;10.17;;;6.50;99.90;;;;;;5104777;28;20026;-79
2022/12/05 11:37:50;;;;;;;26.57;12.43;;;6.50;99.90;;;;;;5101250;28;20024;-78
2022/12/05 11:40:29;;;;;;;26.63;11.60;;;6.50;99.90;;;;;;5102988;28;20032;-80
2022/12/05 11:43:18;;;;;;;25.73;11.93;;;6.50;99.90;;;;;;5114011;28;20031;-81
2022/12/05 11:46:03;;;;;;;25.83;10.90;;;6.60;99.90;;;;;;5113703;28;20053;-78
2022/12/05 11:48:47;;;;;;;21.40;9.70;;;6.60;99.90;;;;;;5106481;28;20030;-78
2022/12/05 11:51:22;;;;;;;20.80;10.33;;;6.70;99.90;;;;;;5105393;28;20024;-80
2022/12/05 11:54:33;;;;;;;18.17;8.87;;;6.90;99.90;;;;;;5104837;28;20480;-79
2022/12/05 11:57:17;;;;;;;18.17;8.37;;;6.90;99.90;;;;;;5070079;28;20102;-81
2022/12/05 12:00:06;;;;;;;16.53;8.67;;;6.90;99.90;;;;;;5101428;28;20036;-80
2022/12/05 12:02:53;;;;;;;15.73;7.40;;;7.00;99.90;;;;;;5101783;28;20107;-79
2022/12/05 12:05:36;;;;;;;16.37;6.97;;;7.10;99.90;;;;;;5111621;28;20035;-78
2022/12/05 12:08:01;;;;;;;12.93;6.80;;;7.20;99.90;;;;;;5109486;28;20571;-79
2022/12/05 12:10:39;;;;;;;15.27;7.10;;;7.20;99.90;;;;;;5097184;28;20032;-77
2022/12/05 12:13:31;;;;;;;15.67;7.83;;;7.30;99.90;;;;;;5108570;28;20031;-78
2022/12/05 12:16:41;;;;;;;13.65;6.38;;;7.20;99.90;;;;;;5099566;28;20044;-79
2022/12/05 12:19:15;;;;;;;14.57;6.43;;;7.20;99.90;;;;;;5055774;28;20093;-78
2022/12/05 12:22:14;;;;;;;15.63;7.13;;;7.10;99.90;;;;;;5107177;28;20056;-78
2022/12/05 12:25:02;;;;;;;15.77;7.10;;;7.00;99.90;;;;;;5106771;28;20031;-76
2022/12/05 12:27:36;;;;;;;13.70;6.70;;;7.00;99.90;;;;;;5107266;28;20031;-79
2022/12/05 12:30:16;;;;;;;26.47;12.47;;;6.90;99.90;;;;;;5106873;28;20034;-83
2022/12/05 12:33:04;;;;;;;13.47;6.30;;;6.80;99.90;;;;;;5112256;28;20034;-78
2022/12/05 12:35:54;;;;;;;13.70;6.17;;;6.80;99.90;;;;;;5108617;28;20023;-79
2022/12/05 12:38:59;;;;;;;11.70;5.60;;;6.70;99.90;;;;;;5098568;28;20469;-79
2022/12/05 12:42:11;;;;;;;8.53;5.13;;;6.70;99.90;;;;;;5093136;28;20055;-81
2022/12/05 12:45:14;;;;;;;14.45;5.97;;;6.70;99.90;;;;;;5079562;28;20058;-79
2022/12/05 12:48:01;;;;;;;12.03;6.03;;;6.70;99.90;;;;;;5097061;28;20122;-80
2022/12/05 12:50:31;;;;;;;9.70;5.47;;;6.70;99.90;;;;;;5104412;28;20145;-80
2022/12/05 12:53:05;;;;;;;14.07;5.27;;;6.70;99.90;;;;;;5097655;28;20035;-81
2022/12/05 12:56:03;;;;;;;9.03;5.40;;;6.70;99.90;;;;;;5095739;28;20043;-79
2022/12/05 12:58:44;;;;;;;9.40;5.13;;;6.70;99.90;;;;;;5047593;28;20040;-80
2022/12/05 13:01:45;;;;;;;10.30;4.77;;;6.70;99.90;;;;;;5097971;28;20032;-80
2022/12/05 13:04:43;;;;;;;11.73;5.57;;;6.70;99.90;;;;;;5013784;28;20029;-79
2022/12/05 13:07:22;;;;;;;9.53;5.13;;;6.70;99.90;;;;;;5095353;28;20032;-79
2022/12/05 13:10:12;;;;;;;11.40;5.73;;;6.80;99.90;;;;;;5098196;28;20030;-82
2022/12/05 13:12:38;;;;;;;9.93;5.17;;;6.80;99.90;;;;;;5101493;28;20077;-82
2022/12/05 13:15:15;;;;;;;11.60;5.23;;;6.80;99.90;;;;;;5099466;28;20105;-80
2022/12/05 13:17:44;;;;;;;11.43;5.63;;;6.80;99.90;;;;;;5091897;28;20115;-74
2022/12/05 13:20:20;;;;;;;9.93;5.13;;;6.80;99.90;;;;;;5105632;28;20032;-74
2022/12/05 13:22:48;;;;;;;11.60;5.77;;;6.70;99.90;;;;;;5095421;28;20067;-76